createdAt,value
2023-04-06T00:00:03.453Z,1.40
2023-04-06T00:02:31.928Z,0.50
2023-04-06T00:05:01.757Z,1.00
2023-04-06T00:07:30.806Z,0.47
2023-04-06T00:09:59.201Z,0.40
2023-04-06T00:12:27.564Z,0.50
2023-04-06T00:14:56.129Z,1.05
2023-04-06T00:17:24.525Z,0.60
2023-04-06T00:19:52.891Z,0.68
2023-04-06T00:22:22.651Z,0.52
2023-04-06T00:24:51.087Z,1.25
2023-04-06T00:27:19.503Z,0.77
2023-04-06T00:29:47.831Z,1.40
2023-04-06T00:32:16.294Z,0.55
2023-04-06T00:34:44.729Z,1.27
2023-04-06T00:37:13.650Z,1.63
2023-04-06T00:39:43.385Z,0.60
2023-04-06T00:42:14.445Z,0.70
2023-04-06T00:44:42.882Z,0.93
2023-04-06T00:47:11.496Z,0.90
2023-04-06T00:49:39.850Z,0.57
2023-04-06T00:52:08.229Z,1.25
2023-04-06T00:54:36.574Z,0.85
2023-04-06T00:57:06.387Z,0.52
2023-04-06T00:59:34.865Z,0.28
2023-04-06T01:02:03.226Z,0.93
2023-04-06T01:04:31.651Z,1.30
2023-04-06T01:07:00.054Z,0.90
2023-04-06T01:09:30.742Z,0.65
2023-04-06T01:11:59.090Z,0.60
2023-04-06T01:14:29.014Z,0.55
2023-04-06T01:16:57.416Z,0.52
2023-04-06T01:19:25.757Z,0.40
2023-04-06T01:21:54.344Z,0.93
2023-04-06T01:24:24.559Z,0.90
2023-04-06T01:26:52.899Z,0.65
2023-04-06T01:29:21.306Z,0.60
2023-04-06T01:31:49.748Z,0.75
2023-04-06T01:34:18.256Z,0.50
2023-04-06T01:36:46.783Z,0.52
2023-04-06T01:39:15.165Z,0.63
2023-04-06T01:41:44.955Z,0.60
2023-04-06T01:44:13.331Z,0.40
2023-04-06T01:46:41.736Z,0.40
2023-04-06T01:49:10.380Z,0.50
2023-04-06T01:51:38.809Z,0.50
2023-04-06T01:54:07.365Z,0.93
2023-04-06T01:56:35.742Z,0.70
2023-04-06T01:59:05.948Z,0.57
2023-04-06T02:01:34.642Z,0.70
2023-04-06T02:04:03.021Z,0.63
2023-04-06T02:06:31.673Z,1.25
2023-04-06T02:09:00.110Z,1.10
2023-04-06T02:11:28.434Z,0.68
2023-04-06T02:13:57.396Z,1.15
2023-04-06T02:16:27.189Z,0.95
2023-04-06T02:18:55.617Z,0.93
2023-04-06T02:21:23.944Z,0.73
2023-04-06T02:23:52.332Z,0.45
2023-04-06T02:26:21.148Z,0.55
2023-04-06T02:28:49.949Z,0.47
2023-04-06T02:31:18.332Z,0.43
2023-04-06T02:33:48.092Z,0.80
2023-04-06T02:36:16.545Z,1.23
2023-04-06T02:38:44.961Z,0.40
2023-04-06T02:41:13.322Z,0.47
2023-04-06T02:43:41.743Z,1.15
2023-04-06T02:46:10.132Z,0.65
2023-04-06T02:48:38.538Z,0.90
2023-04-06T02:51:08.321Z,0.32
2023-04-06T02:53:36.694Z,0.28
2023-04-06T02:56:05.057Z,0.70
2023-04-06T02:58:33.774Z,0.52
2023-04-06T03:01:02.227Z,0.68
2023-04-06T03:03:31.228Z,1.35
2023-04-06T03:06:01.125Z,0.40
2023-04-06T03:08:30.897Z,0.82
2023-04-06T03:10:59.273Z,0.65
2023-04-06T03:13:27.633Z,0.57
2023-04-06T03:15:56.110Z,0.82
2023-04-06T03:18:25.446Z,0.50
2023-04-06T03:20:55.222Z,0.55
2023-04-06T03:23:23.645Z,1.13
2023-04-06T03:25:53.377Z,0.77
2023-04-06T03:28:21.758Z,0.30
2023-04-06T03:30:50.345Z,0.35
2023-04-06T03:33:18.688Z,0.95
2023-04-06T03:35:47.065Z,0.60
2023-04-06T03:38:15.595Z,0.45
2023-04-06T03:40:44.371Z,0.38
2023-04-06T03:43:14.193Z,0.20
2023-04-06T03:45:42.564Z,0.43
2023-04-06T03:48:11.018Z,0.50
2023-04-06T03:50:39.386Z,0.57
2023-04-06T03:53:07.743Z,0.55
2023-04-06T03:55:36.241Z,0.52
2023-04-06T03:58:04.573Z,1.05
2023-04-06T04:00:34.904Z,0.32
2023-04-06T04:03:03.612Z,0.63
2023-04-06T04:05:32.089Z,0.57
2023-04-06T04:08:00.698Z,0.43
2023-04-06T04:10:29.020Z,0.30
2023-04-06T04:12:57.371Z,0.75
2023-04-06T04:15:25.814Z,0.52
2023-04-06T04:17:55.710Z,0.88
2023-04-06T04:20:24.101Z,0.70
2023-04-06T04:22:52.473Z,0.43
2023-04-06T04:25:21.043Z,1.35
2023-04-06T04:27:49.400Z,0.75
2023-04-06T04:30:17.789Z,1.13
2023-04-06T04:32:46.255Z,0.70
2023-04-06T04:35:16.072Z,0.95
2023-04-06T04:37:44.459Z,0.65
2023-04-06T04:40:13.256Z,0.70
2023-04-06T04:42:41.623Z,0.30
2023-04-06T04:45:10.311Z,1.02
2023-04-06T04:47:38.766Z,0.50
2023-04-06T04:50:07.819Z,1.02
2023-04-06T04:52:37.531Z,0.63
2023-04-06T04:55:06.267Z,0.90
2023-04-06T04:57:34.636Z,0.68
2023-04-06T05:00:03.719Z,0.75
2023-04-06T05:02:32.182Z,0.80
2023-04-06T05:05:00.585Z,0.60
2023-04-06T05:07:29.111Z,0.52
2023-04-06T05:09:58.831Z,0.50
2023-04-06T05:12:28.036Z,0.50
2023-04-06T05:14:56.504Z,0.85
2023-04-06T05:17:25.057Z,0.57
2023-04-06T05:19:53.487Z,0.40
2023-04-06T05:22:21.834Z,0.60
2023-04-06T05:24:50.167Z,0.20
2023-04-06T05:27:20.000Z,1.15
2023-04-06T05:29:48.346Z,0.70
2023-04-06T05:32:16.711Z,0.52
2023-04-06T05:34:45.121Z,0.95
2023-04-06T05:37:13.503Z,0.70
2023-04-06T05:39:41.856Z,1.05
2023-04-06T05:42:10.200Z,0.60
2023-04-06T05:44:41.111Z,0.45
2023-04-06T05:47:09.468Z,0.32
2023-04-06T05:49:37.974Z,0.82
2023-04-06T05:52:06.437Z,0.52
2023-04-06T05:54:34.817Z,0.60
2023-04-06T05:57:04.878Z,0.45
2023-04-06T05:59:33.469Z,0.40
2023-04-06T06:02:03.339Z,0.50
2023-04-06T06:04:31.747Z,0.50
2023-04-06T06:07:00.250Z,0.40
2023-04-06T06:09:28.682Z,0.57
2023-04-06T06:11:57.069Z,0.47
2023-04-06T06:14:25.421Z,0.65
2023-04-06T06:16:53.803Z,0.40
2023-04-06T06:19:23.618Z,0.38
2023-04-06T06:21:52.019Z,0.45
2023-04-06T06:24:20.448Z,0.32
2023-04-06T06:26:49.874Z,0.60
2023-04-06T06:29:18.257Z,0.60
2023-04-06T06:31:46.722Z,0.43
2023-04-06T06:34:15.191Z,0.95
2023-04-06T06:36:46.471Z,0.57
2023-04-06T06:39:16.474Z,0.70
2023-04-06T06:41:44.850Z,0.65
2023-04-06T06:44:13.401Z,0.30
2023-04-06T06:46:41.836Z,0.55
2023-04-06T06:49:12.113Z,1.08
2023-04-06T06:51:40.581Z,0.88
2023-04-06T06:54:10.539Z,1.38
2023-04-06T06:56:39.279Z,1.05
2023-04-06T06:59:08.011Z,0.80
2023-04-06T07:01:36.801Z,0.77
2023-04-06T07:04:05.661Z,1.52
2023-04-06T07:06:34.142Z,1.75
2023-04-06T07:09:04.113Z,1.25
2023-04-06T07:11:33.912Z,0.95
2023-04-06T07:14:02.318Z,1.33
2023-04-06T07:16:31.059Z,0.63
2023-04-06T07:18:59.557Z,0.90
2023-04-06T07:21:27.992Z,1.63
2023-04-06T07:23:56.409Z,0.98
2023-04-06T07:26:24.770Z,1.48
2023-04-06T07:28:54.558Z,0.98
2023-04-06T07:31:23.070Z,1.42
2023-04-06T07:33:51.481Z,1.23
2023-04-06T07:36:19.914Z,1.90
2023-04-06T07:38:48.256Z,1.73
2023-04-06T07:41:16.824Z,1.15
2023-04-06T07:43:45.263Z,1.75
2023-04-06T07:46:15.084Z,1.60
2023-04-06T07:48:43.466Z,2.03
2023-04-06T07:51:15.192Z,1.48
2023-04-06T07:53:43.630Z,1.70
2023-04-06T07:56:13.060Z,1.40
2023-04-06T07:58:41.415Z,0.55
2023-04-06T08:01:09.983Z,1.33
2023-04-06T08:03:40.083Z,2.03
2023-04-06T08:06:08.671Z,1.98
2023-04-06T08:08:37.025Z,1.08
2023-04-06T08:11:05.464Z,1.52
2023-04-06T08:13:33.869Z,1.48
2023-04-06T08:16:02.648Z,2.58
2023-04-06T08:18:31.113Z,1.88
2023-04-06T08:21:01.030Z,2.22
2023-04-06T08:23:29.434Z,1.35
2023-04-06T08:25:57.812Z,1.55
2023-04-06T08:28:26.302Z,1.67
2023-04-06T08:30:54.792Z,1.63
2023-04-06T08:33:23.161Z,1.52
2023-04-06T08:35:51.654Z,2.50
2023-04-06T08:38:21.486Z,1.60
2023-04-06T08:40:52.074Z,1.60
2023-04-06T08:43:22.847Z,1.50
2023-04-06T08:45:51.266Z,1.60
2023-04-06T08:48:19.965Z,1.75
2023-04-06T08:50:48.639Z,1.73
2023-04-06T08:53:17.149Z,1.55
2023-04-06T08:55:47.359Z,2.08
2023-04-06T08:58:27.531Z,1.77
2023-04-06T09:01:04.988Z,1.40
2023-04-06T09:03:34.572Z,2.03
2023-04-06T09:06:03.636Z,1.75
2023-04-06T09:08:32.098Z,2.85
2023-04-06T09:11:01.868Z,1.60
2023-04-06T09:13:30.394Z,1.63
2023-04-06T09:16:02.608Z,1.77
2023-04-06T09:18:31.944Z,1.75
2023-04-06T09:21:01.333Z,1.65
2023-04-06T09:23:29.810Z,2.42
2023-04-06T09:26:12.841Z,1.25
2023-04-06T09:28:44.814Z,1.63
2023-04-06T09:31:13.221Z,1.80
2023-04-06T09:33:41.845Z,1.77
2023-04-06T09:36:11.051Z,1.30
2023-04-06T09:38:40.223Z,1.08
2023-04-06T09:41:08.614Z,2.10
2023-04-06T09:43:38.361Z,1.42
2023-04-06T09:46:07.148Z,1.50
2023-04-06T09:48:37.095Z,1.42
2023-04-06T09:51:06.530Z,1.73
2023-04-06T09:53:38.734Z,1.20
2023-04-06T09:56:08.956Z,2.75
2023-04-06T09:58:40.168Z,1.98
2023-04-06T10:01:10.927Z,2.15
2023-04-06T10:03:44.139Z,1.70
2023-04-06T10:06:14.193Z,1.50
2023-04-06T10:08:43.377Z,1.88
2023-04-06T10:11:12.045Z,1.90
2023-04-06T10:13:43.007Z,1.65
2023-04-06T10:16:11.690Z,1.77
2023-04-06T10:18:41.818Z,1.70
2023-04-06T10:21:11.742Z,1.92
2023-04-06T10:23:42.727Z,1.50
2023-04-06T10:26:17.299Z,1.55
2023-04-06T10:28:48.335Z,1.63
2023-04-06T10:31:16.815Z,2.20
2023-04-06T10:33:56.126Z,1.92
2023-04-06T10:36:24.993Z,2.10
2023-04-06T10:38:57.316Z,2.13
2023-04-06T10:41:26.710Z,2.40
2023-04-06T10:43:59.980Z,2.28
2023-04-06T10:46:29.161Z,2.42
2023-04-06T10:48:57.618Z,1.85
2023-04-06T10:51:28.638Z,2.47
2023-04-06T10:53:57.644Z,1.92
2023-04-06T10:56:29.057Z,2.38
2023-04-06T10:58:58.825Z,1.98
2023-04-06T11:01:28.534Z,1.70
2023-04-06T11:04:00.008Z,2.08
2023-04-06T11:06:30.363Z,1.90
2023-04-06T11:08:59.148Z,2.60
2023-04-06T11:11:28.653Z,1.92
2023-04-06T11:13:57.521Z,2.15
2023-04-06T11:16:28.082Z,1.88
2023-04-06T11:18:57.622Z,1.60
2023-04-06T11:21:35.797Z,1.67
2023-04-06T11:24:07.918Z,2.25
2023-04-06T11:26:39.705Z,2.20
2023-04-06T11:29:08.390Z,2.50
2023-04-06T11:31:41.797Z,2.03
2023-04-06T11:34:13.678Z,2.08
2023-04-06T11:36:45.714Z,1.48
2023-04-06T11:39:14.158Z,1.77
2023-04-06T11:41:42.847Z,1.77
2023-04-06T11:44:11.694Z,2.03
2023-04-06T11:46:40.209Z,2.00
2023-04-06T11:49:10.085Z,2.05
2023-04-06T11:51:39.233Z,2.03
2023-04-06T11:54:07.769Z,2.00
2023-04-06T11:56:36.150Z,1.50
2023-04-06T11:59:04.569Z,1.75
2023-04-06T12:01:38.883Z,1.48
2023-04-06T12:04:07.708Z,1.92
2023-04-06T12:06:37.592Z,1.90
2023-04-06T12:09:06.092Z,2.03
2023-04-06T12:11:34.720Z,2.15
2023-04-06T12:14:05.745Z,1.63
2023-04-06T12:16:34.259Z,1.50
2023-04-06T12:19:02.951Z,1.90
2023-04-06T12:21:31.999Z,2.30
2023-04-06T12:24:01.813Z,1.38
2023-04-06T12:26:30.662Z,1.40
2023-04-06T12:29:03.905Z,1.20
2023-04-06T12:31:32.301Z,1.70
2023-04-06T12:34:00.653Z,1.75
2023-04-06T12:36:29.140Z,1.83
2023-04-06T12:38:57.837Z,1.98
2023-04-06T12:41:27.628Z,1.20
2023-04-06T12:43:56.052Z,1.88
2023-04-06T12:46:24.521Z,2.25
2023-04-06T12:48:56.126Z,1.25
2023-04-06T12:51:24.763Z,2.20
2023-04-06T12:53:53.183Z,1.38
2023-04-06T12:56:22.105Z,1.63
2023-04-06T12:58:53.896Z,1.67
2023-04-06T13:01:22.710Z,1.50
2023-04-06T13:03:51.162Z,2.00
2023-04-06T13:06:19.633Z,1.75
2023-04-06T13:08:50.982Z,2.53
2023-04-06T13:11:21.510Z,1.63
2023-04-06T13:13:49.936Z,1.30
2023-04-06T13:16:20.019Z,1.90
2023-04-06T13:18:48.556Z,1.30
2023-04-06T13:21:18.059Z,1.55
2023-04-06T13:23:46.696Z,1.63
2023-04-06T13:26:16.397Z,1.42
2023-04-06T13:28:45.010Z,1.40
2023-04-06T13:31:13.521Z,1.58
2023-04-06T13:33:43.315Z,1.55
2023-04-06T13:36:11.741Z,1.17
2023-04-06T13:38:40.930Z,1.63
2023-04-06T13:41:09.429Z,1.40
2023-04-06T13:43:37.762Z,1.70
2023-04-06T13:46:06.396Z,1.88
2023-04-06T13:48:34.825Z,1.35
2023-04-06T13:51:12.079Z,1.55
2023-04-06T13:53:41.558Z,1.58
2023-04-06T13:56:10.796Z,1.60
2023-04-06T13:58:39.146Z,1.13
2023-04-06T14:01:08.648Z,1.40
2023-04-06T14:03:37.423Z,1.00
2023-04-06T14:06:20.714Z,1.65
2023-04-06T14:08:58.701Z,2.33
2023-04-06T14:11:27.327Z,1.45
2023-04-06T14:13:57.971Z,1.70
2023-04-06T14:16:27.361Z,2.00
2023-04-06T14:18:56.128Z,1.40
2023-04-06T14:21:25.906Z,1.42
2023-04-06T14:23:54.864Z,1.58
2023-04-06T14:26:24.144Z,1.50
2023-04-06T14:28:52.860Z,2.42
2023-04-06T14:31:21.243Z,1.98
2023-04-06T14:33:49.569Z,1.15
2023-04-06T14:36:17.933Z,1.48
2023-04-06T14:38:48.578Z,1.30
2023-04-06T14:41:20.711Z,1.77
2023-04-06T14:43:49.775Z,1.30
2023-04-06T14:46:18.193Z,1.20
2023-04-06T14:48:47.194Z,1.70
2023-04-06T14:51:15.593Z,1.40
2023-04-06T14:53:44.668Z,1.42
2023-04-06T14:56:14.440Z,1.27
2023-04-06T14:58:42.718Z,1.55
2023-04-06T15:01:11.175Z,1.20
2023-04-06T15:03:39.604Z,0.93
2023-04-06T15:06:08.213Z,1.10
2023-04-06T15:08:36.555Z,1.45
2023-04-06T15:11:04.868Z,1.30
2023-04-06T15:13:34.511Z,1.60
2023-04-06T15:16:02.837Z,0.88
2023-04-06T15:18:31.158Z,1.42
2023-04-06T15:20:59.472Z,2.45
2023-04-06T15:23:30.549Z,1.00
2023-04-06T15:25:58.948Z,1.48
2023-04-06T15:28:27.250Z,1.75
2023-04-06T15:30:58.487Z,0.70
2023-04-06T15:33:27.758Z,1.50
2023-04-06T15:35:56.140Z,1.13
2023-04-06T15:38:24.515Z,1.55
2023-04-06T15:40:52.920Z,1.80
2023-04-06T15:43:21.340Z,1.70
2023-04-06T15:45:49.703Z,1.48
2023-04-06T15:48:19.564Z,1.60
2023-04-06T15:50:47.843Z,0.95
2023-04-06T15:53:16.248Z,1.38
2023-04-06T15:55:44.515Z,1.02
2023-04-06T15:58:12.876Z,1.55
2023-04-06T16:00:41.246Z,1.17
2023-04-06T16:03:09.946Z,1.02
2023-04-06T16:05:48.464Z,1.50
2023-04-06T16:08:22.150Z,1.02
2023-04-06T16:10:50.788Z,1.10
2023-04-06T16:13:19.076Z,0.90
2023-04-06T16:15:51.329Z,1.70
2023-04-06T16:18:19.868Z,1.65
2023-04-06T16:20:49.573Z,1.17
2023-04-06T16:23:17.871Z,1.00
2023-04-06T16:25:46.396Z,1.20
2023-04-06T16:28:14.796Z,1.27
2023-04-06T16:30:45.711Z,1.05
2023-04-06T16:33:17.122Z,1.20
2023-04-06T16:35:45.832Z,1.25
2023-04-06T16:38:16.045Z,1.17
2023-04-06T16:40:44.355Z,1.50
2023-04-06T16:43:12.677Z,1.20
2023-04-06T16:45:41.211Z,1.58
2023-04-06T16:48:09.605Z,1.80
2023-04-06T16:50:38.055Z,1.17
2023-04-06T16:53:06.412Z,1.02
2023-04-06T16:55:36.143Z,1.42
2023-04-06T16:58:04.464Z,1.58
2023-04-06T17:00:32.902Z,1.15
2023-04-06T17:03:01.321Z,1.13
2023-04-06T17:05:30.836Z,0.95
2023-04-06T17:07:59.136Z,1.55
2023-04-06T17:10:33.362Z,1.27
2023-04-06T17:13:07.256Z,1.05
2023-04-06T17:15:35.741Z,0.93
2023-04-06T17:18:04.222Z,0.93
2023-04-06T17:20:34.779Z,0.98
2023-04-06T17:23:03.046Z,1.23
2023-04-06T17:25:31.363Z,1.17
2023-04-06T17:27:59.649Z,0.90
2023-04-06T17:30:29.422Z,1.35
2023-04-06T17:32:58.332Z,1.20
2023-04-06T17:35:26.796Z,2.80
2023-04-06T17:37:55.148Z,0.80
2023-04-06T17:40:23.450Z,0.85
2023-04-06T17:42:51.999Z,1.20
2023-04-06T17:45:20.377Z,0.80
2023-04-06T17:47:50.075Z,0.80
2023-04-06T17:50:18.508Z,1.20
2023-04-06T17:52:47.194Z,1.00
2023-04-06T17:55:15.560Z,1.73
2023-04-06T17:57:44.775Z,1.77
2023-04-06T18:00:15.262Z,1.55
2023-04-06T18:02:43.553Z,1.27
2023-04-06T18:05:13.492Z,1.58
2023-04-06T18:07:42.343Z,1.73
2023-04-06T18:10:11.251Z,1.77
2023-04-06T18:12:39.555Z,1.25
2023-04-06T18:15:08.381Z,1.95
2023-04-06T18:17:36.811Z,1.30
2023-04-06T18:20:05.217Z,1.42
2023-04-06T18:22:36.670Z,2.00
2023-04-06T18:25:04.973Z,1.65
2023-04-06T18:27:33.389Z,1.70
2023-04-06T18:30:01.910Z,1.45
2023-04-06T18:32:30.611Z,1.70
2023-04-06T18:34:59.274Z,1.25
2023-04-06T18:37:27.831Z,1.23
2023-04-06T18:39:57.556Z,1.15
2023-04-06T18:42:25.868Z,1.55
2023-04-06T18:44:54.192Z,2.42
2023-04-06T18:47:22.627Z,1.20
2023-04-06T18:49:51.095Z,1.00
2023-04-06T18:52:19.418Z,1.67
2023-04-06T18:54:47.717Z,1.88
2023-04-06T18:57:17.370Z,1.67
2023-04-06T18:59:45.859Z,2.35
2023-04-06T19:02:14.551Z,1.60
2023-04-06T19:04:43.043Z,1.35
2023-04-06T19:07:11.537Z,1.80
2023-04-06T19:09:39.892Z,1.20
2023-04-06T19:12:08.167Z,1.60
2023-04-06T19:14:37.889Z,1.55
2023-04-06T19:17:07.333Z,1.80
2023-04-06T19:19:37.722Z,1.48
2023-04-06T19:22:06.136Z,1.85
2023-04-06T19:24:34.979Z,2.33
2023-04-06T19:27:03.715Z,1.23
2023-04-06T19:29:32.003Z,1.67
2023-04-06T19:32:01.969Z,1.77
2023-04-06T19:34:30.441Z,1.80
2023-04-06T19:36:58.778Z,1.10
2023-04-06T19:39:27.135Z,1.35
2023-04-06T19:41:55.465Z,1.13
2023-04-06T19:44:24.135Z,1.23
2023-04-06T19:46:53.140Z,1.40
2023-04-06T19:49:23.024Z,0.82
2023-04-06T19:51:51.361Z,1.33
2023-04-06T19:54:20.554Z,1.73
2023-04-06T19:56:49.042Z,1.45
2023-04-06T19:59:18.353Z,1.50
2023-04-06T20:01:46.879Z,1.25
2023-04-06T20:04:15.574Z,1.48
2023-04-06T20:06:45.468Z,0.65
2023-04-06T20:09:15.702Z,1.65
2023-04-06T20:11:44.010Z,1.35
2023-04-06T20:14:12.783Z,1.10
2023-04-06T20:16:41.167Z,1.58
2023-04-06T20:19:09.570Z,1.50
2023-04-06T20:21:39.024Z,1.15
2023-04-06T20:24:09.336Z,1.65
2023-04-06T20:26:37.634Z,2.33
2023-04-06T20:29:06.221Z,0.88
2023-04-06T20:31:35.381Z,1.40
2023-04-06T20:34:03.731Z,1.55
2023-04-06T20:36:33.902Z,1.45
2023-04-06T20:39:02.284Z,1.95
2023-04-06T20:41:31.968Z,2.83
2023-04-06T20:44:00.258Z,1.85
2023-04-06T20:46:28.629Z,1.50
2023-04-06T20:48:57.320Z,2.55
2023-04-06T20:51:25.709Z,1.60
2023-04-06T20:53:54.062Z,1.08
2023-04-06T20:56:22.762Z,2.15
2023-04-06T20:58:52.466Z,1.52
2023-04-06T21:01:20.811Z,0.93
2023-04-06T21:03:49.239Z,2.20
2023-04-06T21:06:17.564Z,2.22
2023-04-06T21:08:45.876Z,1.90
2023-04-06T21:11:14.162Z,1.90
2023-04-06T21:13:42.513Z,2.13
2023-04-06T21:16:12.508Z,1.50
2023-04-06T21:18:40.852Z,2.10
2023-04-06T21:21:09.174Z,1.77
2023-04-06T21:23:37.464Z,1.25
2023-04-06T21:26:06.107Z,2.25
2023-04-06T21:28:34.427Z,1.70
2023-04-06T21:31:07.901Z,1.13
2023-04-06T21:33:37.738Z,1.80
2023-04-06T21:36:06.687Z,2.50
2023-04-06T21:38:36.095Z,1.70
2023-04-06T21:41:04.413Z,1.42
2023-04-06T21:43:32.755Z,1.63
2023-04-06T21:46:01.046Z,2.03
2023-04-06T21:48:29.428Z,1.85
2023-04-06T21:50:59.158Z,1.80
2023-04-06T21:53:27.415Z,1.95
2023-04-06T21:55:55.697Z,1.98
2023-04-06T21:58:23.995Z,1.98
2023-04-06T22:00:52.282Z,2.22
2023-04-06T22:03:20.786Z,2.40
2023-04-06T22:05:49.211Z,1.70
2023-04-06T22:08:32.695Z,1.55
2023-04-06T22:11:02.345Z,1.20
2023-04-06T22:13:31.050Z,1.95
2023-04-06T22:15:59.384Z,1.40
2023-04-06T22:18:27.788Z,2.85
2023-04-06T22:20:56.091Z,2.35
2023-04-06T22:23:25.769Z,1.45
2023-04-06T22:25:54.768Z,1.70
2023-04-06T22:28:23.042Z,1.70
2023-04-06T22:30:51.353Z,1.65
2023-04-06T22:33:19.626Z,2.08
2023-04-06T22:35:48.060Z,1.98
2023-04-06T22:38:16.437Z,2.22
2023-04-06T22:40:46.094Z,0.95
2023-04-06T22:43:14.439Z,1.92
2023-04-06T22:45:42.710Z,1.42
2023-04-06T22:48:11.074Z,1.83
2023-04-06T22:50:39.386Z,1.75
2023-04-06T22:53:07.675Z,1.38
2023-04-06T22:55:35.971Z,1.70
2023-04-06T22:58:05.622Z,1.80
2023-04-06T23:00:34.020Z,1.77
2023-04-06T23:03:02.543Z,1.73
2023-04-06T23:05:31.159Z,2.35
2023-04-06T23:07:59.438Z,2.30
2023-04-06T23:10:27.743Z,2.38
2023-04-06T23:12:56.070Z,2.67
2023-04-06T23:15:25.774Z,1.27
2023-04-06T23:17:54.117Z,2.65
2023-04-06T23:20:22.722Z,2.20
2023-04-06T23:22:51.021Z,1.73
2023-04-06T23:25:19.337Z,1.13
2023-04-06T23:27:47.646Z,1.63
2023-04-06T23:30:16.328Z,1.08
2023-04-06T23:32:46.361Z,1.38
2023-04-06T23:35:14.760Z,1.70
2023-04-06T23:37:43.035Z,1.17
2023-04-06T23:40:11.639Z,2.42
2023-04-06T23:42:39.949Z,1.70
2023-04-06T23:45:08.855Z,1.05
2023-04-06T23:47:37.212Z,1.35
2023-04-06T23:50:07.641Z,2.33
2023-04-06T23:52:36.157Z,2.28
2023-04-06T23:55:05.271Z,2.28
2023-04-06T23:57:33.560Z,1.67
